createdAt,value
2023-01-29T00:01:32.062Z,1014.01
2023-01-29T00:07:16.196Z,1013.95
2023-01-29T00:13:00.049Z,1013.87
2023-01-29T00:18:44.337Z,1013.85
2023-01-29T00:24:29.060Z,1013.86
2023-01-29T00:30:14.584Z,1013.94
2023-01-29T00:36:02.470Z,1013.9
2023-01-29T00:41:46.541Z,1013.92
2023-01-29T00:47:30.546Z,1013.9
2023-01-29T00:53:14.438Z,1013.92
2023-01-29T00:58:58.424Z,1013.84
2023-01-29T01:04:45.597Z,1013.87
2023-01-29T01:10:30.818Z,1013.74
2023-01-29T01:16:16.635Z,1013.66
2023-01-29T01:22:00.498Z,1013.66
2023-01-29T01:27:44.386Z,1013.59
2023-01-29T01:33:28.368Z,1013.49
2023-01-29T01:39:12.326Z,1013.44
2023-01-29T01:44:57.743Z,1013.39
2023-01-29T01:50:43.899Z,1013.29
2023-01-29T01:56:30.374Z,1013.28
2023-01-29T02:02:14.945Z,1013.34
2023-01-29T02:08:00.636Z,1013.41
2023-01-29T02:13:45.065Z,1013.29
2023-01-29T02:19:34.395Z,1013.4
2023-01-29T02:25:38.714Z,1013.43
2023-01-29T02:31:28.670Z,1013.49
2023-01-29T02:37:14.506Z,1013.53
2023-01-29T02:43:02.797Z,1013.52
2023-01-29T02:48:51.891Z,1013.6
2023-01-29T02:54:40.706Z,1013.65
2023-01-29T03:00:26.456Z,1013.76
2023-01-29T03:06:12.756Z,1013.78
2023-01-29T03:11:59.170Z,1013.77
2023-01-29T03:17:46.426Z,1013.81
2023-01-29T03:23:32.611Z,1013.78
2023-01-29T03:29:16.550Z,1013.75
2023-01-29T03:35:04.455Z,1013.77
2023-01-29T03:40:51.383Z,1013.74
2023-01-29T03:46:38.927Z,1013.71
2023-01-29T03:52:25.932Z,1013.85
2023-01-29T03:58:14.699Z,1013.76
2023-01-29T04:04:02.447Z,1013.75
2023-01-29T04:09:49.353Z,1013.72
2023-01-29T04:15:37.268Z,1013.62
2023-01-29T04:21:36.178Z,1013.67
2023-01-29T04:27:30.689Z,1013.63
2023-01-29T04:33:27.989Z,1013.6
2023-01-29T04:39:17.719Z,1013.46
2023-01-29T04:45:06.034Z,1013.35
2023-01-29T04:50:53.101Z,1013.17
2023-01-29T04:56:41.883Z,1013.13
2023-01-29T05:02:35.169Z,1012.95
2023-01-29T05:08:20.909Z,1012.97
2023-01-29T05:14:07.484Z,1013.11
2023-01-29T05:19:51.287Z,1013.11
2023-01-29T05:25:35.155Z,1013.15
2023-01-29T05:31:19.296Z,1013.16
2023-01-29T05:37:03.694Z,1013.18
2023-01-29T05:42:47.578Z,1013.22
2023-01-29T05:48:31.304Z,1013.19
2023-01-29T05:54:16.095Z,1013.2
2023-01-29T06:00:00.209Z,1013.23
2023-01-29T06:05:44.409Z,1013.03
2023-01-29T06:11:28.368Z,1012.96
2023-01-29T06:17:12.352Z,1012.94
2023-01-29T06:22:57.131Z,1012.85
2023-01-29T06:28:40.887Z,1012.85
2023-01-29T06:34:25.646Z,1012.88
2023-01-29T06:40:16.545Z,1012.93
2023-01-29T06:46:04.394Z,1013.09
2023-01-29T06:51:48.312Z,1013.08
2023-01-29T06:57:33.208Z,1013.14
2023-01-29T07:03:17.293Z,1013.06
2023-01-29T07:09:01.023Z,1013.11
2023-01-29T07:14:44.823Z,1013.15
2023-01-29T07:20:32.283Z,1013.18
2023-01-29T07:26:16.538Z,1013.32
2023-01-29T07:32:08.165Z,1013.29
2023-01-29T07:38:04.797Z,1013.37
2023-01-29T07:43:48.750Z,1013.13
2023-01-29T07:49:32.493Z,1013.05
2023-01-29T07:55:16.530Z,1013.13
2023-01-29T08:01:00.287Z,1013.17
2023-01-29T08:06:45.372Z,1013.24
2023-01-29T08:12:30.358Z,1013.37
2023-01-29T08:18:26.503Z,1013.39
2023-01-29T08:24:10.698Z,1013.32
2023-01-29T08:29:54.217Z,1013.37
2023-01-29T08:35:38.394Z,1013.38
2023-01-29T08:41:22.130Z,1013.45
2023-01-29T08:47:05.962Z,1013.43
2023-01-29T08:52:49.973Z,1013.54
2023-01-29T08:58:33.672Z,1013.53
2023-01-29T09:04:17.485Z,1013.4
2023-01-29T09:10:01.223Z,1013.27
2023-01-29T09:15:48.024Z,1013.16
2023-01-29T09:21:31.730Z,1013.13
2023-01-29T09:27:15.437Z,1013.13
2023-01-29T09:33:00.810Z,1013.03
2023-01-29T09:38:49.935Z,1013.11
2023-01-29T09:44:43.395Z,1013.11
2023-01-29T09:50:28.927Z,1013.13
2023-01-29T09:56:15.284Z,1013.13
2023-01-29T10:02:03.488Z,1013.1
2023-01-29T10:07:55.357Z,1013
2023-01-29T10:13:45.663Z,1013.1
2023-01-29T10:19:45.256Z,1013
2023-01-29T10:25:29.287Z,1012.94
2023-01-29T10:31:20.798Z,1012.99
2023-01-29T10:37:07.330Z,1012.94
2023-01-29T10:42:56.230Z,1012.79
2023-01-29T10:48:43.700Z,1012.75
2023-01-29T10:54:36.041Z,1012.64
2023-01-29T11:00:22.684Z,1012.51
2023-01-29T11:06:09.889Z,1012.49
2023-01-29T11:11:55.305Z,1012.48
2023-01-29T11:17:39.431Z,1012.37
2023-01-29T11:23:34.142Z,1012.32
2023-01-29T11:29:41.979Z,1012.19
2023-01-29T11:35:26.598Z,1012.12
2023-01-29T11:41:16.121Z,1012.07
2023-01-29T11:47:05.404Z,1011.99
2023-01-29T11:52:52.694Z,1011.86
2023-01-29T11:58:37.012Z,1011.87
2023-01-29T12:04:23.770Z,1011.7
2023-01-29T12:10:15.481Z,1011.66
2023-01-29T12:16:13.713Z,1011.53
2023-01-29T12:22:11.654Z,1011.45
2023-01-29T12:27:58.498Z,1011.24
2023-01-29T12:33:47.254Z,1011.06
2023-01-29T12:39:31.115Z,1010.9
2023-01-29T12:45:17.349Z,1010.73
2023-01-29T12:51:05.553Z,1010.5
2023-01-29T12:56:50.476Z,1010.51
2023-01-29T13:02:40.143Z,1010.51
2023-01-29T13:08:27.500Z,1010.43
2023-01-29T13:14:14.814Z,1010.45
2023-01-29T13:20:01.447Z,1010.43
2023-01-29T13:25:45.291Z,1010.39
2023-01-29T13:31:37.617Z,1010.24
2023-01-29T13:37:25.483Z,1010.09
2023-01-29T13:43:15.504Z,1009.99
2023-01-29T13:48:59.605Z,1009.79
2023-01-29T13:54:48.676Z,1009.77
2023-01-29T14:00:52.494Z,1009.71
2023-01-29T14:06:53.194Z,1009.62
2023-01-29T14:12:41.958Z,1009.68
2023-01-29T14:18:46.002Z,1009.55
2023-01-29T14:24:35.083Z,1009.58
2023-01-29T14:30:19.663Z,1009.6
2023-01-29T14:36:05.262Z,1009.62
2023-01-29T14:41:50.477Z,1009.54
2023-01-29T14:47:45.594Z,1009.48
2023-01-29T14:53:54.225Z,1009.41
2023-01-29T14:59:39.503Z,1009.42
2023-01-29T15:05:25.501Z,1009.51
2023-01-29T15:11:14.554Z,1009.48
2023-01-29T15:17:09.541Z,1009.47
2023-01-29T15:22:53.476Z,1009.46
2023-01-29T15:28:40.257Z,1009.54
2023-01-29T15:34:29.541Z,1009.48
2023-01-29T15:40:17.880Z,1009.41
2023-01-29T15:46:02.925Z,1009.37
2023-01-29T15:51:47.215Z,1009.3
2023-01-29T15:57:33.583Z,1009.29
2023-01-29T16:03:22.817Z,1009.27
2023-01-29T16:09:07.994Z,1009.29
2023-01-29T16:14:53.965Z,1009.27
2023-01-29T16:20:41.408Z,1009.23
2023-01-29T16:26:27.403Z,1009.2
2023-01-29T16:32:12.149Z,1009.2
2023-01-29T16:37:59.728Z,1009.38
2023-01-29T16:43:57.054Z,1009.33
2023-01-29T16:49:54.543Z,1009.32
2023-01-29T16:55:40.147Z,1009.29
2023-01-29T17:01:25.357Z,1009.21
2023-01-29T17:07:14.468Z,1009.13
2023-01-29T17:13:01.737Z,1009.17
2023-01-29T17:18:45.682Z,1009.09
2023-01-29T17:24:29.350Z,1009.01
2023-01-29T17:30:15.230Z,1009.04
2023-01-29T17:35:59.097Z,1008.97
2023-01-29T17:41:43.856Z,1008.94
2023-01-29T17:47:31.550Z,1008.88
2023-01-29T17:53:15.481Z,1008.84
2023-01-29T17:58:59.473Z,1008.75
2023-01-29T18:04:44.757Z,1008.68
2023-01-29T18:10:32.176Z,1008.79
2023-01-29T18:16:16.311Z,1008.74
2023-01-29T18:22:00.812Z,1008.73
2023-01-29T18:27:46.238Z,1008.7
2023-01-29T18:33:30.042Z,1008.61
2023-01-29T18:39:14.695Z,1008.52
2023-01-29T18:44:58.512Z,1008.43
2023-01-29T18:50:42.466Z,1008.32
2023-01-29T18:56:26.477Z,1008.23
2023-01-29T19:02:12.179Z,1008.23
2023-01-29T19:07:56.253Z,1008.2
2023-01-29T19:13:40.690Z,1008.17
2023-01-29T19:19:24.556Z,1008.1
2023-01-29T19:25:09.413Z,1008.07
2023-01-29T19:30:53.443Z,1007.88
2023-01-29T19:36:37.490Z,1007.78
2023-01-29T19:42:21.577Z,1007.77
2023-01-29T19:48:05.469Z,1007.75
2023-01-29T19:53:50.295Z,1007.8
2023-01-29T19:59:34.245Z,1007.8
2023-01-29T20:05:19.122Z,1007.74
2023-01-29T20:11:03.625Z,1007.57
2023-01-29T20:16:47.406Z,1007.47
2023-01-29T20:22:31.261Z,1007.34
2023-01-29T20:28:15.962Z,1007.23
2023-01-29T20:33:59.812Z,1007.13
2023-01-29T20:39:43.566Z,1007.18
2023-01-29T20:45:28.534Z,1007.16
2023-01-29T20:51:13.239Z,1007.06
2023-01-29T20:56:57.436Z,1007.05
2023-01-29T21:02:41.375Z,1007
2023-01-29T21:08:25.543Z,1007.1
2023-01-29T21:14:09.574Z,1007.02
2023-01-29T21:19:53.601Z,1007.12
2023-01-29T21:25:37.686Z,1007.08
2023-01-29T21:31:23.907Z,1007.09
2023-01-29T21:37:08.014Z,1006.99
2023-01-29T21:42:52.165Z,1007.14
2023-01-29T21:48:36.891Z,1007.19
2023-01-29T21:54:20.951Z,1007.28
2023-01-29T22:00:06.735Z,1007.44
2023-01-29T22:05:50.862Z,1007.4
2023-01-29T22:11:34.985Z,1007.13
2023-01-29T22:17:19.363Z,1007.06
2023-01-29T22:23:04.009Z,1006.85
2023-01-29T22:28:47.953Z,1006.95
2023-01-29T22:34:31.889Z,1006.99
2023-01-29T22:40:16.899Z,1006.92
2023-01-29T22:46:01.888Z,1006.88
2023-01-29T22:51:45.937Z,1006.75
2023-01-29T22:57:29.851Z,1006.37
2023-01-29T23:03:14.017Z,1005.93
2023-01-29T23:08:57.889Z,1006.42
2023-01-29T23:14:41.814Z,1006.48
2023-01-29T23:20:25.845Z,1006.4
2023-01-29T23:26:10.989Z,1006.54
2023-01-29T23:31:54.977Z,1006.41
2023-01-29T23:37:38.836Z,1006.41
2023-01-29T23:43:24.411Z,1006.16
2023-01-29T23:49:08.136Z,1005.98
2023-01-29T23:54:51.923Z,1005.76
